Time;durP1;ratioP1;P1;durP2;ratioP2;P2;SDS_P1;SDS_P2;PMS_P1;PMS_P2;Temp;Humidity;BMP_temperature;BMP_pressure;BME280_temperature;BME280_humidity;BME280_pressure;Samples;Min_cycle;Max_cycle;Signal;HPM_P1;HPM_P2
2023/07/17 00:00:01;;;;;;;1.05;0.90;;;;;;;20.01;70.57;99627.22;340094;28;5401;-64
2023/07/17 00:00:15;;;;;;;0.88;0.70;;;;;;;20.01;70.54;99624.59;338479;28;17985;-64
2023/07/17 00:00:28;;;;;;;1.10;0.70;;;;;;;20.02;71.01;99620.97;335688;28;17975;-65
2023/07/17 00:00:46;;;;;;;1.00;0.70;;;;;;;20.02;70.70;99621.84;335065;28;18925;-64
2023/07/17 00:00:58;;;;;;;0.80;0.60;;;;;;;20.05;70.66;99621.59;334922;28;19078;-64
2023/07/17 00:01:10;;;;;;;0.75;0.52;;;;;;;20.02;70.20;99631.53;338008;28;6065;-64
2023/07/17 00:01:23;;;;;;;1.00;0.63;;;;;;;20.00;70.17;99628.16;336141;28;11977;-65
2023/07/17 00:01:35;;;;;;;1.10;0.75;;;;;;;20.00;70.02;99622.88;338639;28;4579;-64
2023/07/17 00:01:47;;;;;;;0.98;0.90;;;;;;;19.98;70.03;99623.03;338951;28;4655;-64
2023/07/17 00:01:59;;;;;;;1.52;1.05;;;;;;;20.00;69.75;99626.38;332590;28;18034;-64
2023/07/17 00:02:11;;;;;;;2.05;1.00;;;;;;;20.00;69.90;99621.13;337787;28;6192;-64
2023/07/17 00:02:24;;;;;;;2.42;1.02;;;;;;;20.02;69.97;99626.25;337930;28;4692;-64
2023/07/17 00:02:36;;;;;;;1.48;0.95;;;;;;;20.00;70.00;99623.75;334748;28;18241;-64
2023/07/17 00:02:48;;;;;;;1.40;0.90;;;;;;;19.98;70.38;99627.44;338932;28;4689;-65
2023/07/17 00:03:00;;;;;;;1.38;0.82;;;;;;;20.02;70.43;99626.25;335751;28;18276;-64
2023/07/17 00:03:12;;;;;;;1.45;0.85;;;;;;;20.03;70.13;99625.31;338114;28;5147;-64
2023/07/17 00:03:24;;;;;;;1.10;0.90;;;;;;;20.02;70.27;99626.25;337544;28;4933;-65
2023/07/17 00:03:37;;;;;;;0.80;0.80;;;;;;;20.03;70.03;99620.88;336718;28;18152;-65
2023/07/17 00:03:50;;;;;;;0.68;0.68;;;;;;;20.03;69.98;99622.69;339066;28;4649;-64
2023/07/17 00:04:02;;;;;;;0.85;0.70;;;;;;;19.94;70.27;99619.75;335075;28;19711;-64
2023/07/17 00:04:14;;;;;;;0.90;0.70;;;;;;;19.94;70.48;99624.16;338017;28;4589;-65
2023/07/17 00:04:26;;;;;;;1.00;0.70;;;;;;;19.94;70.37;99618.88;336693;28;17658;-64
2023/07/17 00:04:38;;;;;;;1.00;0.70;;;;;;;19.95;70.73;99625.88;339260;28;4503;-65
2023/07/17 00:04:50;;;;;;;0.80;0.70;;;;;;;19.92;70.87;99621.66;335847;28;18021;-65
2023/07/17 00:05:04;;;;;;;0.70;0.65;;;;;;;19.92;70.62;99626.94;338910;28;4835;-64
2023/07/17 00:05:16;;;;;;;1.10;0.90;;;;;;;19.88;70.90;99625.47;335208;28;17762;-65
2023/07/17 00:05:28;;;;;;;1.05;0.90;;;;;;;19.86;70.80;99624.75;337682;28;4770;-64
2023/07/17 00:05:40;;;;;;;1.10;0.90;;;;;;;19.84;70.49;99624.00;336657;28;18034;-65
2023/07/17 00:05:52;;;;;;;1.30;0.90;;;;;;;19.85;70.66;99620.41;339954;28;4631;-64
2023/07/17 00:06:04;;;;;;;1.70;0.80;;;;;;;19.83;71.30;99622.31;339390;28;12418;-65
2023/07/17 00:06:16;;;;;;;1.48;0.80;;;;;;;19.84;71.18;99626.66;336458;28;18201;-64
2023/07/17 00:06:29;;;;;;;0.88;0.70;;;;;;;19.83;71.31;99624.94;335355;28;5432;-64
2023/07/17 00:06:41;;;;;;;1.13;0.75;;;;;;;19.81;71.02;99624.22;337343;28;18108;-64
2023/07/17 00:06:53;;;;;;;1.70;0.80;;;;;;;19.82;70.62;99625.03;339915;28;4687;-64
2023/07/17 00:07:05;;;;;;;1.77;0.90;;;;;;;19.79;70.62;99626.13;337809;28;4857;-64
2023/07/17 00:07:17;;;;;;;1.20;0.70;;;;;;;19.77;71.03;99627.19;338802;28;16960;-64
2023/07/17 00:07:30;;;;;;;1.00;0.80;;;;;;;19.74;71.25;99629.09;339825;28;4674;-65
2023/07/17 00:07:42;;;;;;;0.88;0.80;;;;;;;19.77;70.81;99633.28;336994;28;18074;-65
2023/07/17 00:07:54;;;;;;;0.82;0.70;;;;;;;19.79;70.84;99626.13;339816;28;5000;-65
2023/07/17 00:08:06;;;;;;;1.20;0.70;;;;;;;19.82;70.81;99625.03;336418;28;18407;-65
2023/07/17 00:08:18;;;;;;;1.35;0.75;;;;;;;19.79;70.76;99631.38;337928;28;4662;-65
2023/07/17 00:08:30;;;;;;;0.80;0.70;;;;;;;19.79;70.64;99630.56;338122;28;5499;-64
2023/07/17 00:08:42;;;;;;;0.80;0.80;;;;;;;19.76;70.99;99631.63;335888;28;17984;-65
2023/07/17 00:08:54;;;;;;;0.77;0.77;;;;;;;19.78;70.87;99624.44;337073;28;4526;-65
2023/07/17 00:09:06;;;;;;;1.20;0.80;;;;;;;19.79;70.70;99631.38;338148;28;18124;-64
2023/07/17 00:09:18;;;;;;;1.17;0.70;;;;;;;19.81;70.63;99634.75;331056;28;18254;-65
2023/07/17 00:09:30;;;;;;;1.25;0.70;;;;;;;19.82;70.34;99627.69;338004;28;5566;-65
2023/07/17 00:09:43;;;;;;;1.13;0.70;;;;;;;19.83;70.19;99627.59;331813;28;17928;-65
2023/07/17 00:09:55;;;;;;;1.00;0.70;;;;;;;19.83;70.32;99621.47;338750;28;4543;-64
2023/07/17 00:10:09;;;;;;;0.93;0.70;;;;;;;19.85;70.23;99627.47;336683;28;17753;-64
2023/07/17 00:10:21;;;;;;;0.98;0.80;;;;;;;19.84;70.07;99621.38;339262;28;4843;-64
2023/07/17 00:10:33;;;;;;;0.90;0.77;;;;;;;19.84;70.27;99618.72;336671;28;18364;-64
2023/07/17 00:10:45;;;;;;;0.90;0.65;;;;;;;19.83;70.31;99621.47;339681;28;4551;-64
2023/07/17 00:10:58;;;;;;;0.80;0.60;;;;;;;19.83;70.51;99624.94;336726;28;16607;-65
2023/07/17 00:11:10;;;;;;;0.70;0.60;;;;;;;19.80;70.53;99622.53;339731;28;4796;-64
2023/07/17 00:11:22;;;;;;;1.25;0.77;;;;;;;19.80;70.51;99622.53;337182;28;16799;-65
2023/07/17 00:11:34;;;;;;;1.40;0.90;;;;;;;19.81;70.42;99624.22;339817;28;5202;-64
2023/07/17 00:11:46;;;;;;;1.45;0.88;;;;;;;19.81;70.73;99624.22;339565;28;12229;-64
2023/07/17 00:11:58;;;;;;;0.95;0.70;;;;;;;19.81;70.94;99621.56;336316;28;18004;-64
2023/07/17 00:12:10;;;;;;;0.80;0.68;;;;;;;19.83;70.83;99626.75;339168;28;4751;-64
2023/07/17 00:12:22;;;;;;;0.95;0.73;;;;;;;19.83;70.68;99627.59;334043;28;5198;-64
2023/07/17 00:12:36;;;;;;;0.82;0.70;;;;;;;19.86;70.63;99627.38;334952;28;17974;-64
2023/07/17 00:12:48;;;;;;;0.95;0.75;;;;;;;19.87;70.53;99625.56;333945;28;16139;-64
2023/07/17 00:13:00;;;;;;;0.98;0.70;;;;;;;19.89;70.48;99628.94;337977;28;5077;-64
2023/07/17 00:13:12;;;;;;;1.05;0.80;;;;;;;19.88;70.50;99630.75;337707;28;5492;-64
2023/07/17 00:13:25;;;;;;;0.98;0.73;;;;;;;19.89;70.53;99626.31;334744;28;18057;-64
2023/07/17 00:13:37;;;;;;;0.80;0.68;;;;;;;19.89;70.48;99632.41;337351;28;4678;-64
2023/07/17 00:13:49;;;;;;;0.95;0.60;;;;;;;19.89;70.24;99621.88;337723;28;4715;-64
2023/07/17 00:14:01;;;;;;;0.90;0.60;;;;;;;19.89;70.84;99632.41;336274;28;18296;-64
2023/07/17 00:14:13;;;;;;;1.33;0.70;;;;;;;19.87;70.90;99629.03;338920;28;4571;-64
2023/07/17 00:14:25;;;;;;;0.95;0.60;;;;;;;19.87;70.86;99634.31;335765;28;17983;-64
2023/07/17 00:14:37;;;;;;;1.00;0.70;;;;;;;19.89;71.00;99631.59;339198;28;5797;-64
2023/07/17 00:14:49;;;;;;;0.73;0.63;;;;;;;19.90;71.03;99634.13;335345;28;19305;-64
2023/07/17 00:15:05;;;;;;;0.82;0.63;;;;;;;19.91;70.73;99630.50;337506;28;4690;-63
2023/07/17 00:15:17;;;;;;;0.60;0.60;;;;;;;19.94;70.76;99626.81;335620;28;18274;-64
2023/07/17 00:15:29;;;;;;;0.60;0.60;;;;;;;19.97;70.53;99638.94;336817;28;5604;-64
2023/07/17 00:15:41;;;;;;;0.50;0.50;;;;;;;19.99;70.65;99631.78;333471;28;18189;-64
2023/07/17 00:15:54;;;;;;;0.70;0.60;;;;;;;20.00;70.40;99626.38;337714;28;5187;-64
2023/07/17 00:16:06;;;;;;;0.80;0.63;;;;;;;20.02;70.82;99626.25;334855;28;16264;-64
2023/07/17 00:16:19;;;;;;;0.90;0.70;;;;;;;20.02;71.40;99620.97;338550;28;5268;-64
2023/07/17 00:16:32;;;;;;;0.75;0.70;;;;;;;20.03;70.78;99628.78;332502;28;15894;-64
2023/07/17 00:16:47;;;;;;;1.20;0.82;;;;;;;20.05;70.86;99626.03;333410;28;17779;-63
2023/07/17 00:16:59;;;;;;;1.52;0.90;;;;;;;20.04;71.02;99634.91;337263;28;5002;-63
2023/07/17 00:17:12;;;;;;;1.77;0.73;;;;;;;20.04;71.48;99624.34;335560;28;18000;-63
2023/07/17 00:17:24;;;;;;;1.75;0.68;;;;;;;20.05;71.14;99631.31;338026;28;6809;-63
2023/07/17 00:17:36;;;;;;;1.27;0.70;;;;;;;20.06;70.79;99627.72;338327;28;18351;-63
2023/07/17 00:17:48;;;;;;;1.20;0.70;;;;;;;20.07;71.10;99629.41;340161;28;4719;-63
2023/07/17 00:18:00;;;;;;;0.85;0.70;;;;;;;20.09;70.74;99630.16;336182;28;18460;-63
2023/07/17 00:18:13;;;;;;;1.10;0.65;;;;;;;20.09;70.96;99623.06;337926;28;4806;-65
2023/07/17 00:18:25;;;;;;;1.40;0.70;;;;;;;20.11;70.96;99625.59;334133;28;4559;-64
2023/07/17 00:18:38;;;;;;;1.15;0.80;;;;;;;20.13;70.89;99628.97;336538;28;17939;-63
2023/07/17 00:18:50;;;;;;;0.95;0.70;;;;;;;20.14;70.63;99622.72;339027;28;4607;-63
2023/07/17 00:19:02;;;;;;;0.75;0.60;;;;;;;20.14;70.91;99628.00;335570;28;17759;-63
2023/07/17 00:19:13;;;;;;;0.90;0.70;;;;;;;20.14;70.58;99620.94;338931;28;4684;-64
2023/07/17 00:19:26;;;;;;;1.27;0.93;;;;;;;20.17;70.88;99621.69;335819;28;11840;-64
2023/07/17 00:19:39;;;;;;;0.90;0.77;;;;;;;20.17;70.50;99630.44;338840;28;4646;-63
2023/07/17 00:19:56;;;;;;;0.57;0.57;;;;;;;20.18;70.65;99623.34;338817;28;4750;-64
2023/07/17 00:20:11;;;;;;;0.80;0.50;;;;;;;20.19;70.37;99623.25;335779;28;16839;-64
2023/07/17 00:20:23;;;;;;;0.88;0.65;;;;;;;20.20;70.29;99624.91;335717;28;18072;-63
2023/07/17 00:20:35;;;;;;;0.80;0.80;;;;;;;20.22;70.31;99622.16;338665;28;4548;-64
2023/07/17 00:20:47;;;;;;;0.80;0.80;;;;;;;20.22;70.31;99628.31;336304;28;17938;-64
2023/07/17 00:20:59;;;;;;;1.00;0.70;;;;;;;20.23;70.33;99629.97;334212;28;7158;-64
2023/07/17 00:21:11;;;;;;;0.90;0.68;;;;;;;20.22;70.83;99622.16;335609;28;12378;-65
2023/07/17 00:21:24;;;;;;;0.70;0.60;;;;;;;20.22;70.68;99622.16;333715;28;4793;-63
2023/07/17 00:21:36;;;;;;;0.60;0.50;;;;;;;20.22;71.01;99628.31;338249;28;5098;-63
2023/07/17 00:21:48;;;;;;;0.57;0.50;;;;;;;20.20;71.04;99630.19;334992;28;18552;-63
2023/07/17 00:22:00;;;;;;;0.60;0.60;;;;;;;20.20;70.86;99624.91;338376;28;4495;-63
2023/07/17 00:22:12;;;;;;;0.73;0.70;;;;;;;20.18;71.53;99629.47;336151;28;6602;-65
2023/07/17 00:22:24;;;;;;;1.42;0.80;;;;;;;20.20;71.15;99624.91;337792;28;4920;-64
2023/07/17 00:22:36;;;;;;;1.60;0.80;;;;;;;20.21;71.21;99626.63;337146;28;5171;-64
2023/07/17 00:22:48;;;;;;;1.27;0.70;;;;;;;20.22;71.48;99628.31;336394;28;4603;-64
2023/07/17 00:23:00;;;;;;;1.70;0.70;;;;;;;20.23;71.07;99624.69;333459;28;4666;-64
2023/07/17 00:23:12;;;;;;;1.80;0.80;;;;;;;20.24;71.35;99626.41;335280;28;11994;-64
2023/07/17 00:23:25;;;;;;;1.42;0.68;;;;;;;20.23;71.11;99631.78;337568;28;5220;-64
2023/07/17 00:23:36;;;;;;;0.98;0.57;;;;;;;20.24;71.54;99626.41;331695;28;5249;-64
2023/07/17 00:23:49;;;;;;;0.88;0.50;;;;;;;20.23;71.46;99632.63;335802;28;15559;-64
2023/07/17 00:24:01;;;;;;;0.75;0.50;;;;;;;20.26;71.27;99635.06;337683;28;5225;-64
2023/07/17 00:24:13;;;;;;;0.50;0.50;;;;;;;20.27;71.08;99634.06;335554;28;11705;-64
2023/07/17 00:24:25;;;;;;;1.10;0.70;;;;;;;20.26;71.39;99635.06;335650;28;18972;-64
2023/07/17 00:24:37;;;;;;;1.17;0.70;;;;;;;20.23;72.16;99629.16;338089;28;4660;-64
2023/07/17 00:24:52;;;;;;;1.08;0.63;;;;;;;20.23;72.08;99629.16;336399;28;18434;-64
2023/07/17 00:25:04;;;;;;;0.90;0.60;;;;;;;20.21;72.39;99626.63;335605;28;18038;-64
2023/07/17 00:25:17;;;;;;;0.70;0.52;;;;;;;20.23;72.32;99635.25;338714;28;4842;-66
2023/07/17 00:25:29;;;;;;;0.50;0.50;;;;;;;20.26;71.74;99635.06;334644;28;18463;-64
2023/07/17 00:25:41;;;;;;;0.63;0.60;;;;;;;20.26;71.74;99635.06;337861;28;4509;-64
2023/07/17 00:25:53;;;;;;;1.30;0.77;;;;;;;20.27;71.67;99635.88;333047;28;4685;-64
2023/07/17 00:26:05;;;;;;;1.40;0.70;;;;;;;20.26;71.75;99635.06;335286;28;18415;-64
2023/07/17 00:26:17;;;;;;;1.07;0.70;;;;;;;20.23;72.58;99635.25;338498;28;5693;-64
2023/07/17 00:26:30;;;;;;;1.50;0.70;;;;;;;20.23;72.77;99637.91;335144;28;18139;-63
2023/07/17 00:26:42;;;;;;;1.65;0.70;;;;;;;20.21;72.86;99631.88;337813;28;4681;-62
2023/07/17 00:26:54;;;;;;;1.15;0.73;;;;;;;20.24;72.77;99630.81;334735;28;19047;-63
2023/07/17 00:27:06;;;;;;;0.88;0.65;;;;;;;20.25;72.42;99630.72;337911;28;5432;-64
2023/07/17 00:27:19;;;;;;;1.00;0.60;;;;;;;20.24;72.39;99631.69;340027;28;5222;-63
2023/07/17 00:27:31;;;;;;;1.50;0.50;;;;;;;20.25;72.41;99633.34;331832;28;17790;-63
2023/07/17 00:27:43;;;;;;;1.52;0.60;;;;;;;20.24;72.60;99634.31;338874;28;5554;-63
2023/07/17 00:27:55;;;;;;;1.00;0.50;;;;;;;20.25;72.48;99633.34;336772;28;6356;-63
2023/07/17 00:28:07;;;;;;;1.10;0.52;;;;;;;20.24;72.09;99630.81;338311;28;5712;-63
2023/07/17 00:28:19;;;;;;;1.30;0.70;;;;;;;20.25;71.65;99633.34;335589;28;4707;-64
2023/07/17 00:28:31;;;;;;;0.70;0.68;;;;;;;20.26;71.63;99629.78;338495;28;4511;-63
2023/07/17 00:28:43;;;;;;;0.65;0.60;;;;;;;20.27;71.53;99628.81;338427;28;4726;-62
2023/07/17 00:29:35;;;;;;;0.88;0.65;;;;;;;20.34;70.94;99635.31;335087;28;5387;-68
2023/07/17 00:29:49;;;;;;;0.98;0.75;;;;;;;20.34;71.00;99640.59;339244;28;5626;-68
2023/07/17 00:30:03;;;;;;;0.90;0.70;;;;;;;20.34;70.97;99637.09;336835;28;17529;-68
2023/07/17 00:30:15;;;;;;;0.70;0.60;;;;;;;20.34;70.64;99637.97;339590;28;4714;-69
2023/07/17 00:30:29;;;;;;;0.65;0.60;;;;;;;20.36;70.57;99640.47;321874;28;18387;-68
2023/07/17 00:30:43;;;;;;;1.23;0.63;;;;;;;20.34;70.17;99643.25;336544;28;18035;-68
2023/07/17 00:30:55;;;;;;;1.17;0.60;;;;;;;20.35;70.43;99639.63;338796;28;4670;-69
2023/07/17 00:31:07;;;;;;;0.73;0.60;;;;;;;20.34;71.15;99637.09;325612;28;17957;-68
2023/07/17 00:31:19;;;;;;;0.70;0.57;;;;;;;20.37;71.37;99641.34;332512;28;5039;-68
2023/07/17 00:31:31;;;;;;;0.70;0.60;;;;;;;20.38;71.20;99643.00;337839;28;16362;-69
2023/07/17 00:31:44;;;;;;;0.60;0.57;;;;;;;20.40;70.70;99635.81;336063;28;5664;-69
2023/07/17 00:31:57;;;;;;;0.60;0.57;;;;;;;20.41;70.59;99633.06;337161;28;17897;-70
2023/07/17 00:32:13;;;;;;;0.50;0.50;;;;;;;20.43;70.64;99632.97;335944;28;4539;-69
2023/07/17 00:32:25;;;;;;;0.68;0.57;;;;;;;20.44;70.61;99637.28;336453;28;17780;-70
2023/07/17 00:32:38;;;;;;;1.10;0.75;;;;;;;20.45;70.33;99638.97;334590;28;18262;-69
2023/07/17 00:32:50;;;;;;;0.90;0.70;;;;;;;20.45;70.47;99644.25;336340;28;5242;-68
2023/07/17 00:33:02;;;;;;;1.08;0.70;;;;;;;20.45;70.16;99649.53;333477;28;18036;-69
2023/07/17 00:33:15;;;;;;;1.30;0.70;;;;;;;20.44;70.18;99638.09;335705;28;4684;-68
2023/07/17 00:33:27;;;;;;;1.30;0.75;;;;;;;20.44;70.10;99647.84;332967;28;18382;-70
2023/07/17 00:33:39;;;;;;;0.70;0.70;;;;;;;20.44;70.05;99643.38;336490;28;4876;-69
2023/07/17 00:33:51;;;;;;;0.60;0.60;;;;;;;20.45;70.16;99638.97;335657;28;4579;-68
2023/07/17 00:34:03;;;;;;;0.68;0.68;;;;;;;20.47;69.85;99639.69;331851;28;18475;-68
2023/07/17 00:34:15;;;;;;;0.63;0.60;;;;;;;20.47;69.94;99644.97;337448;28;4685;-68
2023/07/17 00:34:27;;;;;;;0.50;0.50;;;;;;;20.48;69.95;99644.00;334397;28;18961;-69
2023/07/17 00:34:41;;;;;;;0.55;0.50;;;;;;;20.43;70.67;99638.25;335088;28;5213;-69
2023/07/17 00:34:53;;;;;;;0.77;0.50;;;;;;;20.43;70.81;99639.06;333585;28;18944;-68
2023/07/17 00:35:05;;;;;;;0.88;0.55;;;;;;;20.43;70.61;99646.16;335432;28;4715;-68
2023/07/17 00:35:17;;;;;;;0.65;0.60;;;;;;;20.39;70.47;99645.53;332724;28;5659;-69
2023/07/17 00:35:29;;;;;;;0.60;0.60;;;;;;;20.38;70.95;99643.84;336009;28;5449;-69
2023/07/17 00:35:41;;;;;;;0.60;0.60;;;;;;;20.40;70.52;99646.38;332613;28;5407;-70
2023/07/17 00:35:53;;;;;;;0.68;0.60;;;;;;;20.38;70.47;99643.00;335468;29;4689;-68
2023/07/17 00:36:06;;;;;;;0.70;0.60;;;;;;;20.39;70.41;99645.53;335180;28;5232;-67
2023/07/17 00:36:18;;;;;;;0.85;0.65;;;;;;;20.41;70.17;99645.44;327674;29;16468;-70
2023/07/17 00:36:29;;;;;;;0.75;0.50;;;;;;;20.42;70.26;99653.22;334674;28;4839;-69
2023/07/17 00:36:42;;;;;;;1.00;0.60;;;;;;;20.42;70.30;99645.31;337232;28;5414;-69
2023/07/17 00:36:54;;;;;;;0.93;0.60;;;;;;;20.43;69.93;99649.63;332854;28;18388;-68
2023/07/17 00:37:06;;;;;;;0.55;0.55;;;;;;;20.43;69.92;99649.63;336856;28;5977;-69
2023/07/17 00:37:18;;;;;;;0.80;0.60;;;;;;;20.45;69.99;99652.16;335727;28;11614;-68
2023/07/17 00:37:30;;;;;;;0.80;0.60;;;;;;;20.47;69.77;99647.63;337644;28;4702;-69
2023/07/17 00:37:42;;;;;;;0.65;0.60;;;;;;;20.46;69.89;99643.28;338398;28;4621;-68
2023/07/17 00:37:55;;;;;;;0.60;0.60;;;;;;;20.46;69.58;99640.63;328548;28;18228;-68
2023/07/17 00:38:07;;;;;;;0.73;0.70;;;;;;;20.48;69.56;99644.00;339630;28;4648;-69
2023/07/17 00:38:19;;;;;;;0.82;0.60;;;;;;;20.48;69.95;99644.00;337428;28;18408;-70
2023/07/17 00:38:31;;;;;;;0.95;0.70;;;;;;;20.46;69.56;99641.47;337318;28;5713;-68
2023/07/17 00:38:43;;;;;;;1.02;0.70;;;;;;;20.45;69.50;99633.69;338600;28;5061;-70
2023/07/17 00:38:55;;;;;;;1.03;0.67;;;;;;;20.43;69.61;99648.81;335739;28;18252;-69
2023/07/17 00:39:07;;;;;;;0.80;0.70;;;;;;;20.43;69.55;99636.44;336559;28;4502;-68
2023/07/17 00:39:20;;;;;;;0.80;0.80;;;;;;;20.43;69.18;99636.44;336094;28;12312;-70
2023/07/17 00:39:33;;;;;;;1.20;0.80;;;;;;;20.43;69.14;99638.25;333949;28;4656;-69
2023/07/17 00:39:45;;;;;;;1.20;0.75;;;;;;;20.43;69.16;99646.16;336485;28;16587;-69
2023/07/17 00:39:57;;;;;;;1.10;0.70;;;;;;;20.43;69.20;99646.16;339921;28;5248;-69
2023/07/17 00:40:09;;;;;;;0.75;0.70;;;;;;;20.42;69.10;99633.91;333748;28;5438;-70
2023/07/17 00:40:21;;;;;;;0.90;0.60;;;;;;;20.42;69.29;99642.66;336679;28;4538;-68
2023/07/17 00:40:38;;;;;;;1.10;0.63;;;;;;;20.42;69.22;99645.31;337313;28;4510;-68
2023/07/17 00:40:50;;;;;;;0.82;0.63;;;;;;;20.41;69.21;99640.16;327760;28;17370;-68
2023/07/17 00:41:02;;;;;;;0.70;0.70;;;;;;;20.39;69.16;99639.44;336906;28;5334;-68
2023/07/17 00:41:15;;;;;;;0.80;0.80;;;;;;;20.32;69.54;99639.00;334119;28;12432;-69
2023/07/17 00:41:27;;;;;;;0.70;0.70;;;;;;;20.33;69.73;99646.00;336818;28;4677;-69
2023/07/17 00:41:39;;;;;;;0.50;0.50;;;;;;;20.35;69.71;99642.28;336628;28;5412;-69
2023/07/17 00:41:51;;;;;;;0.40;0.40;;;;;;;20.34;69.84;99642.38;334865;28;18550;-68
2023/07/17 00:42:03;;;;;;;0.32;0.32;;;;;;;20.37;69.78;99641.34;336750;28;5406;-68
2023/07/17 00:42:15;;;;;;;0.60;0.40;;;;;;;20.38;69.68;99640.38;334468;28;5333;-70
2023/07/17 00:42:27;;;;;;;0.70;0.45;;;;;;;20.39;69.64;99642.06;335364;28;4658;-69
2023/07/17 00:42:40;;;;;;;2.35;0.60;;;;;;;20.39;69.95;99631.50;340444;28;4632;-68
2023/07/17 00:42:57;;;;;;;2.42;0.60;;;;;;;20.37;70.33;99636.06;337290;28;18550;-69
2023/07/17 00:43:12;;;;;;;1.10;0.52;;;;;;;20.40;70.11;99641.09;336548;28;17201;-68
2023/07/17 00:43:24;;;;;;;0.70;0.60;;;;;;;20.38;70.12;99627.16;335207;28;16849;-69
2023/07/17 00:43:36;;;;;;;0.82;0.63;;;;;;;20.37;69.94;99628.13;337403;28;18067;-70
2023/07/17 00:43:48;;;;;;;0.75;0.60;;;;;;;20.39;70.07;99629.69;338331;28;5445;-69
2023/07/17 00:44:00;;;;;;;0.95;0.60;;;;;;;20.39;70.20;99626.22;332748;28;4672;-68
2023/07/17 00:44:12;;;;;;;1.00;0.63;;;;;;;20.40;70.13;99631.38;334236;28;16343;-70
2023/07/17 00:44:24;;;;;;;0.82;0.60;;;;;;;20.40;70.01;99633.19;337442;28;5378;-69
2023/07/17 00:44:38;;;;;;;0.60;0.57;;;;;;;20.40;70.29;99627.91;334366;28;12198;-70
2023/07/17 00:44:50;;;;;;;0.70;0.60;;;;;;;20.39;70.28;99632.34;337177;28;4697;-68
2023/07/17 00:45:03;;;;;;;0.93;0.70;;;;;;;20.39;70.11;99634.97;333490;28;16513;-69
2023/07/17 00:45:15;;;;;;;1.90;0.68;;;;;;;20.40;70.42;99634.00;337278;28;5004;-69
2023/07/17 00:45:31;;;;;;;2.50;0.70;;;;;;;20.39;70.44;99631.50;336281;28;5376;-70
2023/07/17 00:45:44;;;;;;;1.80;0.77;;;;;;;20.39;70.22;99636.78;335939;28;5334;-68
2023/07/17 00:45:57;;;;;;;1.35;0.70;;;;;;;20.39;70.13;99636.78;338905;28;5183;-69
2023/07/17 00:46:09;;;;;;;0.98;0.60;;;;;;;20.39;70.18;99631.50;335912;28;17892;-68
2023/07/17 00:46:21;;;;;;;0.57;0.40;;;;;;;20.40;70.23;99641.09;338633;28;4815;-68
2023/07/17 00:46:34;;;;;;;0.90;0.50;;;;;;;20.39;70.23;99640.25;334263;28;15907;-68
2023/07/17 00:46:48;;;;;;;1.20;0.70;;;;;;;20.41;70.38;99621.69;337247;28;5244;-69
2023/07/17 00:47:00;;;;;;;1.17;0.70;;;;;;;20.42;70.35;99634.72;332580;28;17868;-69
2023/07/17 00:47:12;;;;;;;1.20;0.80;;;;;;;20.41;70.08;99638.34;339235;28;6266;-69
2023/07/17 00:47:24;;;;;;;0.80;0.60;;;;;;;20.41;70.08;99632.22;339603;28;11418;-70
2023/07/17 00:47:37;;;;;;;0.85;0.55;;;;;;;20.43;70.02;99636.44;339189;28;18470;-69
2023/07/17 00:47:49;;;;;;;1.20;0.60;;;;;;;20.43;70.14;99636.44;341447;28;5381;-68
2023/07/17 00:48:03;;;;;;;1.10;0.70;;;;;;;20.43;70.07;99631.16;337090;28;18061;-68
2023/07/17 00:48:15;;;;;;;0.98;0.70;;;;;;;20.42;70.06;99634.72;335876;28;17923;-70
2023/07/17 00:48:27;;;;;;;0.70;0.70;;;;;;;20.43;69.70;99630.31;339927;28;4578;-69
2023/07/17 00:48:39;;;;;;;0.90;0.70;;;;;;;20.40;69.95;99641.09;341413;28;12390;-69
2023/07/17 00:48:51;;;;;;;1.02;0.70;;;;;;;20.40;69.93;99638.44;332089;28;15803;-68
2023/07/17 00:49:06;;;;;;;1.40;0.70;;;;;;;20.39;69.89;99639.44;338107;28;4645;-68
2023/07/17 00:49:20;;;;;;;1.25;0.73;;;;;;;20.39;70.09;99629.69;335559;28;17694;-68
2023/07/17 00:49:33;;;;;;;0.80;0.70;;;;;;;20.39;70.22;99642.91;334894;28;18900;-69
2023/07/17 00:49:47;;;;;;;1.27;0.77;;;;;;;20.39;70.20;99639.44;335343;28;18854;-69
2023/07/17 00:50:01;;;;;;;1.42;0.80;;;;;;;20.39;69.78;99644.72;335859;28;13232;-69
2023/07/17 00:50:13;;;;;;;0.90;0.70;;;;;;;20.39;69.80;99634.97;337387;28;5562;-69
2023/07/17 00:50:27;;;;;;;0.68;0.60;;;;;;;20.41;70.16;99637.50;333501;28;4495;-68
2023/07/17 00:50:39;;;;;;;0.57;0.50;;;;;;;20.42;69.93;99631.25;335203;28;18572;-69
2023/07/17 00:50:51;;;;;;;0.50;0.50;;;;;;;20.43;69.83;99635.59;335610;28;12366;-69
2023/07/17 00:51:03;;;;;;;0.60;0.45;;;;;;;20.43;69.71;99639.06;337219;28;4541;-68
2023/07/17 00:51:15;;;;;;;0.65;0.50;;;;;;;20.43;70.00;99635.59;334657;28;5551;-70
2023/07/17 00:51:28;;;;;;;0.60;0.52;;;;;;;20.44;69.73;99648.66;337829;28;4737;-68
2023/07/17 00:51:41;;;;;;;0.82;0.70;;;;;;;20.44;69.48;99637.28;337830;28;5224;-69
2023/07/17 00:51:56;;;;;;;0.90;0.70;;;;;;;20.44;69.43;99645.19;333744;28;17933;-68
2023/07/17 00:52:10;;;;;;;0.63;0.60;;;;;;;20.44;69.21;99634.63;335134;28;16948;-69
2023/07/17 00:52:22;;;;;;;0.60;0.60;;;;;;;20.44;69.25;99637.28;334927;28;17749;-68
2023/07/17 00:52:38;;;;;;;0.65;0.65;;;;;;;20.43;69.08;99635.59;339332;28;4606;-69
2023/07/17 00:52:50;;;;;;;0.70;0.60;;;;;;;20.43;69.26;99636.44;335787;28;16949;-69
2023/07/17 00:53:03;;;;;;;0.70;0.68;;;;;;;20.42;69.08;99633.91;335462;28;4699;-68
2023/07/17 00:53:16;;;;;;;0.70;0.65;;;;;;;20.42;69.11;99640.00;338827;28;5629;-68
2023/07/17 00:53:28;;;;;;;0.90;0.70;;;;;;;20.41;69.07;99633.06;334971;28;19228;-68
2023/07/17 00:53:42;;;;;;;1.17;0.82;;;;;;;20.41;69.20;99637.50;338909;28;4525;-69
2023/07/17 00:53:55;;;;;;;1.90;0.80;;;;;;;20.40;69.11;99630.53;335561;28;17497;-69
2023/07/17 00:54:10;;;;;;;1.80;0.77;;;;;;;20.39;69.36;99639.44;335471;28;16027;-69
2023/07/17 00:54:22;;;;;;;1.00;0.60;;;;;;;20.32;69.31;99639.00;333860;28;7240;-70
2023/07/17 00:54:35;;;;;;;0.93;0.60;;;;;;;20.30;69.84;99636.50;338141;28;7948;-69
2023/07/17 00:54:48;;;;;;;1.17;0.60;;;;;;;20.30;69.92;99625.09;338566;28;4860;-68
2023/07/17 00:55:01;;;;;;;1.30;0.70;;;;;;;20.26;70.02;99634.19;330389;28;18190;-68
2023/07/17 00:55:14;;;;;;;0.90;0.70;;;;;;;20.24;70.44;99636.97;337072;28;16877;-70
2023/07/17 00:55:26;;;;;;;0.87;0.60;;;;;;;20.24;70.29;99631.69;337731;28;4667;-68
2023/07/17 00:55:38;;;;;;;0.98;0.65;;;;;;;20.25;70.30;99635.16;334897;28;11987;-69
2023/07/17 00:55:50;;;;;;;1.13;0.65;;;;;;;20.25;70.37;99636.00;338296;28;5501;-69
2023/07/17 00:56:02;;;;;;;1.05;0.70;;;;;;;20.26;70.37;99626.25;335852;28;5522;-70
2023/07/17 00:56:15;;;;;;;0.77;0.63;;;;;;;20.27;70.44;99636.72;336975;28;4734;-70
2023/07/17 00:56:28;;;;;;;0.82;0.75;;;;;;;20.28;70.30;99627.88;337688;28;4681;-69
2023/07/17 00:56:42;;;;;;;0.82;0.70;;;;;;;20.30;70.05;99636.50;333210;28;18048;-69
2023/07/17 00:56:56;;;;;;;0.70;0.60;;;;;;;20.31;70.00;99632.91;333999;28;13002;-70
2023/07/17 00:57:11;;;;;;;1.98;0.70;;;;;;;20.28;70.18;99630.50;335199;28;12708;-70
2023/07/17 00:57:25;;;;;;;2.05;0.70;;;;;;;20.26;70.11;99629.78;337169;28;5292;-68
2023/07/17 00:57:37;;;;;;;0.70;0.70;;;;;;;20.28;70.04;99632.28;335866;28;18087;-69
2023/07/17 00:57:51;;;;;;;1.08;0.68;;;;;;;20.28;69.83;99637.56;335089;28;18196;-69
2023/07/17 00:58:04;;;;;;;1.10;0.60;;;;;;;20.26;69.81;99629.78;338334;28;4691;-68
2023/07/17 00:58:16;;;;;;;0.70;0.70;;;;;;;20.25;69.80;99630.72;336134;28;13795;-69
2023/07/17 00:58:28;;;;;;;0.70;0.70;;;;;;;20.22;69.98;99630.94;338184;28;4529;-69
2023/07/17 00:58:40;;;;;;;0.88;0.77;;;;;;;20.21;69.91;99631.88;335702;28;17826;-69
2023/07/17 00:58:52;;;;;;;1.05;0.68;;;;;;;20.21;69.98;99631.06;339070;28;4584;-68
2023/07/17 00:59:05;;;;;;;1.70;0.75;;;;;;;20.17;70.19;99633.06;337440;28;11763;-70
2023/07/17 00:59:17;;;;;;;1.70;0.80;;;;;;;20.15;70.08;99633.16;339500;28;4805;-69
2023/07/17 00:59:30;;;;;;;0.63;0.63;;;;;;;20.14;70.32;99630.63;333305;28;5495;-70
2023/07/17 00:59:42;;;;;;;0.70;0.68;;;;;;;20.11;70.24;99630.88;338586;28;17641;-68
2023/07/17 00:59:54;;;;;;;0.77;0.70;;;;;;;20.08;70.34;99633.72;336677;28;4701;-70
2023/07/17 01:00:08;;;;;;;0.98;0.77;;;;;;;20.10;70.59;99635.31;338701;28;4647;-68
2023/07/17 01:00:23;;;;;;;1.33;0.80;;;;;;;20.09;70.15;99632.78;335925;28;18278;-68
2023/07/17 01:00:36;;;;;;;1.15;0.80;;;;;;;20.13;70.69;99635.09;335627;28;18231;-70
2023/07/17 01:00:48;;;;;;;1.20;0.65;;;;;;;20.17;70.37;99640.97;338731;28;4624;-68